sensor_id;sensor_type;location;lat;lon;timestamp;P1;durP1;ratioP1;P2;durP2;ratioP2
55423;SDS011;41294;42.666;23.350;2023-02-28T00:01:09;15.87;;;10.17;;
55423;SDS011;41294;42.666;23.350;2023-02-28T00:03:36;19.00;;;11.07;;
55423;SDS011;41294;42.666;23.350;2023-02-28T00:06:04;17.23;;;10.70;;
55423;SDS011;41294;42.666;23.350;2023-02-28T00:08:31;17.17;;;11.23;;
55423;SDS011;41294;42.666;23.350;2023-02-28T00:11:00;18.50;;;10.97;;
55423;SDS011;41294;42.666;23.350;2023-02-28T00:13:26;18.20;;;11.37;;
55423;SDS011;41294;42.666;23.350;2023-02-28T00:16:02;21.23;;;11.10;;
55423;SDS011;41294;42.666;23.350;2023-02-28T00:18:30;21.73;;;12.27;;
55423;SDS011;41294;42.666;23.350;2023-02-28T00:20:55;18.60;;;11.47;;
55423;SDS011;41294;42.666;23.350;2023-02-28T00:23:21;18.70;;;12.13;;
55423;SDS011;41294;42.666;23.350;2023-02-28T00:25:47;17.33;;;11.60;;
55423;SDS011;41294;42.666;23.350;2023-02-28T00:28:13;17.27;;;11.30;;
55423;SDS011;41294;42.666;23.350;2023-02-28T00:30:38;14.27;;;10.70;;
55423;SDS011;41294;42.666;23.350;2023-02-28T00:33:04;21.47;;;11.90;;
55423;SDS011;41294;42.666;23.350;2023-02-28T00:35:29;20.30;;;12.33;;
55423;SDS011;41294;42.666;23.350;2023-02-28T00:37:56;19.97;;;12.93;;
55423;SDS011;41294;42.666;23.350;2023-02-28T00:40:21;21.77;;;12.57;;
55423;SDS011;41294;42.666;23.350;2023-02-28T00:42:46;24.93;;;13.17;;
55423;SDS011;41294;42.666;23.350;2023-02-28T00:45:12;19.97;;;12.70;;
55423;SDS011;41294;42.666;23.350;2023-02-28T00:47:37;23.37;;;13.20;;
55423;SDS011;41294;42.666;23.350;2023-02-28T00:50:03;22.13;;;13.13;;
55423;SDS011;41294;42.666;23.350;2023-02-28T00:52:29;20.03;;;12.80;;
55423;SDS011;41294;42.666;23.350;2023-02-28T00:54:54;18.37;;;11.83;;
55423;SDS011;41294;42.666;23.350;2023-02-28T00:57:20;16.97;;;11.70;;
55423;SDS011;41294;42.666;23.350;2023-02-28T00:59:45;18.87;;;12.43;;
55423;SDS011;41294;42.666;23.350;2023-02-28T01:02:11;21.53;;;12.20;;
55423;SDS011;41294;42.666;23.350;2023-02-28T01:04:36;21.33;;;13.47;;
55423;SDS011;41294;42.666;23.350;2023-02-28T01:07:01;18.77;;;12.10;;
55423;SDS011;41294;42.666;23.350;2023-02-28T01:09:27;19.87;;;11.47;;
55423;SDS011;41294;42.666;23.350;2023-02-28T01:11:52;19.27;;;12.53;;
55423;SDS011;41294;42.666;23.350;2023-02-28T01:14:18;21.43;;;13.63;;
55423;SDS011;41294;42.666;23.350;2023-02-28T01:16:43;23.53;;;13.67;;
55423;SDS011;41294;42.666;23.350;2023-02-28T01:19:09;20.33;;;13.30;;
55423;SDS011;41294;42.666;23.350;2023-02-28T01:21:34;20.83;;;13.13;;
55423;SDS011;41294;42.666;23.350;2023-02-28T01:24:01;20.73;;;13.00;;
55423;SDS011;41294;42.666;23.350;2023-02-28T01:26:28;25.67;;;15.13;;
55423;SDS011;41294;42.666;23.350;2023-02-28T01:28:53;28.60;;;15.70;;
55423;SDS011;41294;42.666;23.350;2023-02-28T01:31:19;24.37;;;14.53;;
55423;SDS011;41294;42.666;23.350;2023-02-28T01:33:46;26.73;;;15.47;;
55423;SDS011;41294;42.666;23.350;2023-02-28T01:36:20;27.23;;;16.60;;
55423;SDS011;41294;42.666;23.350;2023-02-28T01:38:46;25.37;;;16.80;;
55423;SDS011;41294;42.666;23.350;2023-02-28T01:41:17;29.50;;;16.73;;
55423;SDS011;41294;42.666;23.350;2023-02-28T01:46:11;25.30;;;16.47;;
55423;SDS011;41294;42.666;23.350;2023-02-28T01:48:48;28.37;;;17.10;;
55423;SDS011;41294;42.666;23.350;2023-02-28T01:51:22;27.30;;;15.27;;
55423;SDS011;41294;42.666;23.350;2023-02-28T01:53:55;22.90;;;14.60;;
55423;SDS011;41294;42.666;23.350;2023-02-28T01:56:26;22.67;;;15.63;;
55423;SDS011;41294;42.666;23.350;2023-02-28T01:58:54;24.30;;;14.27;;
55423;SDS011;41294;42.666;23.350;2023-02-28T02:01:21;27.80;;;15.20;;
55423;SDS011;41294;42.666;23.350;2023-02-28T02:03:51;23.67;;;14.87;;
55423;SDS011;41294;42.666;23.350;2023-02-28T02:06:23;25.90;;;15.50;;
55423;SDS011;41294;42.666;23.350;2023-02-28T02:08:51;28.00;;;15.50;;
55423;SDS011;41294;42.666;23.350;2023-02-28T02:11:17;28.37;;;15.80;;
55423;SDS011;41294;42.666;23.350;2023-02-28T02:16:34;25.37;;;15.07;;
55423;SDS011;41294;42.666;23.350;2023-02-28T02:19:43;23.67;;;14.93;;
55423;SDS011;41294;42.666;23.350;2023-02-28T02:27:23;23.43;;;13.57;;
55423;SDS011;41294;42.666;23.350;2023-02-28T02:40:52;23.97;;;14.70;;
55423;SDS011;41294;42.666;23.350;2023-02-28T02:43:25;22.77;;;13.60;;
55423;SDS011;41294;42.666;23.350;2023-02-28T02:46:03;20.30;;;13.63;;
55423;SDS011;41294;42.666;23.350;2023-02-28T02:48:33;27.07;;;14.23;;
55423;SDS011;41294;42.666;23.350;2023-02-28T02:51:03;22.27;;;13.87;;
55423;SDS011;41294;42.666;23.350;2023-02-28T02:53:37;24.77;;;14.90;;
55423;SDS011;41294;42.666;23.350;2023-02-28T02:56:14;25.17;;;14.60;;
55423;SDS011;41294;42.666;23.350;2023-02-28T02:58:43;20.77;;;13.63;;
55423;SDS011;41294;42.666;23.350;2023-02-28T03:01:14;22.50;;;14.97;;
55423;SDS011;41294;42.666;23.350;2023-02-28T03:03:52;22.37;;;14.07;;
55423;SDS011;41294;42.666;23.350;2023-02-28T03:06:22;26.33;;;15.10;;
55423;SDS011;41294;42.666;23.350;2023-02-28T03:08:47;22.00;;;14.57;;
55423;SDS011;41294;42.666;23.350;2023-02-28T03:11:14;34.20;;;17.10;;
55423;SDS011;41294;42.666;23.350;2023-02-28T03:27:10;27.37;;;16.33;;
55423;SDS011;41294;42.666;23.350;2023-02-28T03:30:03;30.43;;;17.83;;
55423;SDS011;41294;42.666;23.350;2023-02-28T03:32:48;30.27;;;17.23;;
55423;SDS011;41294;42.666;23.350;2023-02-28T03:35:23;31.40;;;17.20;;
55423;SDS011;41294;42.666;23.350;2023-02-28T03:37:56;28.07;;;17.03;;
55423;SDS011;41294;42.666;23.350;2023-02-28T03:40:30;34.50;;;19.23;;
55423;SDS011;41294;42.666;23.350;2023-02-28T03:42:59;31.00;;;17.90;;
55423;SDS011;41294;42.666;23.350;2023-02-28T03:45:28;33.27;;;18.60;;
55423;SDS011;41294;42.666;23.350;2023-02-28T03:47:57;38.87;;;19.03;;
55423;SDS011;41294;42.666;23.350;2023-02-28T03:50:38;39.63;;;18.97;;
55423;SDS011;41294;42.666;23.350;2023-02-28T03:55:51;43.80;;;21.43;;
55423;SDS011;41294;42.666;23.350;2023-02-28T03:58:24;41.67;;;20.87;;
55423;SDS011;41294;42.666;23.350;2023-02-28T04:00:55;47.00;;;22.33;;
55423;SDS011;41294;42.666;23.350;2023-02-28T04:03:33;46.60;;;21.57;;
55423;SDS011;41294;42.666;23.350;2023-02-28T04:06:00;51.90;;;22.23;;
55423;SDS011;41294;42.666;23.350;2023-02-28T04:08:26;43.07;;;21.13;;
55423;SDS011;41294;42.666;23.350;2023-02-28T04:11:03;47.03;;;21.60;;
55423;SDS011;41294;42.666;23.350;2023-02-28T04:13:36;45.97;;;20.50;;
55423;SDS011;41294;42.666;23.350;2023-02-28T04:16:02;42.37;;;21.13;;
55423;SDS011;41294;42.666;23.350;2023-02-28T04:18:36;42.20;;;21.17;;
55423;SDS011;41294;42.666;23.350;2023-02-28T04:21:02;38.70;;;19.17;;
55423;SDS011;41294;42.666;23.350;2023-02-28T04:23:27;43.50;;;19.23;;
55423;SDS011;41294;42.666;23.350;2023-02-28T04:25:54;34.73;;;19.00;;
55423;SDS011;41294;42.666;23.350;2023-02-28T04:28:20;41.30;;;20.33;;
55423;SDS011;41294;42.666;23.350;2023-02-28T04:30:45;40.37;;;20.23;;
55423;SDS011;41294;42.666;23.350;2023-02-28T04:33:11;40.83;;;19.47;;
55423;SDS011;41294;42.666;23.350;2023-02-28T04:35:36;47.73;;;21.80;;
55423;SDS011;41294;42.666;23.350;2023-02-28T04:38:01;42.80;;;20.83;;
55423;SDS011;41294;42.666;23.350;2023-02-28T04:40:27;47.20;;;20.83;;
55423;SDS011;41294;42.666;23.350;2023-02-28T04:42:52;40.77;;;19.93;;
55423;SDS011;41294;42.666;23.350;2023-02-28T04:45:18;60.87;;;20.10;;
55423;SDS011;41294;42.666;23.350;2023-02-28T04:47:43;42.33;;;20.27;;
55423;SDS011;41294;42.666;23.350;2023-02-28T04:50:09;52.73;;;22.43;;
55423;SDS011;41294;42.666;23.350;2023-02-28T04:52:34;46.93;;;22.33;;
55423;SDS011;41294;42.666;23.350;2023-02-28T04:55:00;66.87;;;23.63;;
55423;SDS011;41294;42.666;23.350;2023-02-28T04:57:25;43.63;;;23.33;;
55423;SDS011;41294;42.666;23.350;2023-02-28T04:59:50;47.57;;;23.33;;
55423;SDS011;41294;42.666;23.350;2023-02-28T05:02:16;50.00;;;24.30;;
55423;SDS011;41294;42.666;23.350;2023-02-28T05:04:41;50.50;;;25.93;;
55423;SDS011;41294;42.666;23.350;2023-02-28T05:07:06;55.83;;;25.40;;
55423;SDS011;41294;42.666;23.350;2023-02-28T05:09:32;54.63;;;25.63;;
55423;SDS011;41294;42.666;23.350;2023-02-28T05:12:00;49.67;;;24.43;;
55423;SDS011;41294;42.666;23.350;2023-02-28T05:14:26;56.47;;;24.63;;
55423;SDS011;41294;42.666;23.350;2023-02-28T05:16:51;54.20;;;23.60;;
55423;SDS011;41294;42.666;23.350;2023-02-28T05:19:16;49.43;;;23.93;;
55423;SDS011;41294;42.666;23.350;2023-02-28T05:21:54;59.70;;;24.60;;
55423;SDS011;41294;42.666;23.350;2023-02-28T05:24:20;44.80;;;23.97;;
55423;SDS011;41294;42.666;23.350;2023-02-28T05:26:49;54.60;;;26.20;;
55423;SDS011;41294;42.666;23.350;2023-02-28T05:29:17;55.20;;;25.13;;
55423;SDS011;41294;42.666;23.350;2023-02-28T05:31:42;53.63;;;26.43;;
55423;SDS011;41294;42.666;23.350;2023-02-28T05:34:08;51.57;;;24.57;;
55423;SDS011;41294;42.666;23.350;2023-02-28T05:36:36;56.03;;;26.57;;
55423;SDS011;41294;42.666;23.350;2023-02-28T05:39:01;60.73;;;26.93;;
55423;SDS011;41294;42.666;23.350;2023-02-28T05:41:29;57.93;;;27.07;;
55423;SDS011;41294;42.666;23.350;2023-02-28T05:43:54;64.00;;;26.87;;
55423;SDS011;41294;42.666;23.350;2023-02-28T05:46:20;55.47;;;27.00;;
55423;SDS011;41294;42.666;23.350;2023-02-28T05:48:46;61.00;;;26.37;;
55423;SDS011;41294;42.666;23.350;2023-02-28T05:51:12;65.43;;;28.57;;
55423;SDS011;41294;42.666;23.350;2023-02-28T05:53:38;54.23;;;26.73;;
55423;SDS011;41294;42.666;23.350;2023-02-28T05:56:03;59.20;;;27.23;;
55423;SDS011;41294;42.666;23.350;2023-02-28T05:58:29;59.13;;;27.23;;
55423;SDS011;41294;42.666;23.350;2023-02-28T06:00:55;56.67;;;28.13;;
55423;SDS011;41294;42.666;23.350;2023-02-28T06:03:22;53.77;;;26.30;;
55423;SDS011;41294;42.666;23.350;2023-02-28T06:05:47;48.67;;;25.47;;
55423;SDS011;41294;42.666;23.350;2023-02-28T06:08:13;46.80;;;23.80;;
55423;SDS011;41294;42.666;23.350;2023-02-28T06:10:38;50.93;;;23.83;;
55423;SDS011;41294;42.666;23.350;2023-02-28T06:13:03;52.67;;;26.20;;
55423;SDS011;41294;42.666;23.350;2023-02-28T06:15:29;52.27;;;25.93;;
55423;SDS011;41294;42.666;23.350;2023-02-28T06:17:55;46.53;;;22.77;;
55423;SDS011;41294;42.666;23.350;2023-02-28T06:20:21;55.33;;;25.07;;
55423;SDS011;41294;42.666;23.350;2023-02-28T06:22:47;49.73;;;23.57;;
55423;SDS011;41294;42.666;23.350;2023-02-28T06:25:13;42.43;;;21.90;;
55423;SDS011;41294;42.666;23.350;2023-02-28T06:27:38;52.03;;;25.80;;
55423;SDS011;41294;42.666;23.350;2023-02-28T06:30:04;56.93;;;25.97;;
55423;SDS011;41294;42.666;23.350;2023-02-28T06:32:30;52.67;;;26.77;;
55423;SDS011;41294;42.666;23.350;2023-02-28T06:34:55;52.13;;;27.13;;
55423;SDS011;41294;42.666;23.350;2023-02-28T06:37:22;56.23;;;26.23;;
55423;SDS011;41294;42.666;23.350;2023-02-28T06:39:51;45.17;;;24.03;;
55423;SDS011;41294;42.666;23.350;2023-02-28T06:42:16;52.07;;;26.33;;
55423;SDS011;41294;42.666;23.350;2023-02-28T06:44:41;63.30;;;28.07;;
55423;SDS011;41294;42.666;23.350;2023-02-28T06:47:07;51.57;;;26.50;;
55423;SDS011;41294;42.666;23.350;2023-02-28T06:49:34;52.90;;;25.70;;
55423;SDS011;41294;42.666;23.350;2023-02-28T06:52:00;48.20;;;26.13;;
55423;SDS011;41294;42.666;23.350;2023-02-28T06:54:26;49.40;;;23.23;;
55423;SDS011;41294;42.666;23.350;2023-02-28T06:56:52;45.63;;;24.20;;
55423;SDS011;41294;42.666;23.350;2023-02-28T06:59:22;44.47;;;23.27;;
55423;SDS011;41294;42.666;23.350;2023-02-28T07:01:47;51.10;;;25.40;;
55423;SDS011;41294;42.666;23.350;2023-02-28T07:04:15;55.03;;;25.50;;
55423;SDS011;41294;42.666;23.350;2023-02-28T07:06:40;47.33;;;24.03;;
55423;SDS011;41294;42.666;23.350;2023-02-28T07:09:06;48.13;;;24.43;;
55423;SDS011;41294;42.666;23.350;2023-02-28T07:11:31;50.47;;;23.70;;
55423;SDS011;41294;42.666;23.350;2023-02-28T07:13:57;44.60;;;22.40;;
55423;SDS011;41294;42.666;23.350;2023-02-28T07:16:23;38.03;;;21.33;;
55423;SDS011;41294;42.666;23.350;2023-02-28T07:18:51;38.73;;;21.07;;
55423;SDS011;41294;42.666;23.350;2023-02-28T07:21:17;38.73;;;22.50;;
55423;SDS011;41294;42.666;23.350;2023-02-28T07:23:43;40.77;;;22.20;;
55423;SDS011;41294;42.666;23.350;2023-02-28T07:26:12;37.23;;;22.03;;
55423;SDS011;41294;42.666;23.350;2023-02-28T07:28:44;36.47;;;21.57;;
55423;SDS011;41294;42.666;23.350;2023-02-28T07:31:10;39.97;;;21.60;;
55423;SDS011;41294;42.666;23.350;2023-02-28T07:33:38;38.77;;;22.53;;
55423;SDS011;41294;42.666;23.350;2023-02-28T07:36:05;35.90;;;21.60;;
55423;SDS011;41294;42.666;23.350;2023-02-28T07:38:42;37.63;;;21.83;;
55423;SDS011;41294;42.666;23.350;2023-02-28T07:41:09;37.40;;;22.37;;
55423;SDS011;41294;42.666;23.350;2023-02-28T07:43:34;39.03;;;22.87;;
55423;SDS011;41294;42.666;23.350;2023-02-28T07:48:29;35.63;;;21.67;;
55423;SDS011;41294;42.666;23.350;2023-02-28T07:50:55;33.60;;;20.50;;
55423;SDS011;41294;42.666;23.350;2023-02-28T07:53:21;33.03;;;20.97;;
55423;SDS011;41294;42.666;23.350;2023-02-28T07:55:47;33.77;;;21.87;;
55423;SDS011;41294;42.666;23.350;2023-02-28T07:58:12;33.07;;;21.20;;
55423;SDS011;41294;42.666;23.350;2023-02-28T08:00:38;34.63;;;19.97;;
55423;SDS011;41294;42.666;23.350;2023-02-28T08:03:03;28.43;;;18.13;;
55423;SDS011;41294;42.666;23.350;2023-02-28T08:05:29;38.17;;;18.90;;
55423;SDS011;41294;42.666;23.350;2023-02-28T08:07:55;31.53;;;18.90;;
55423;SDS011;41294;42.666;23.350;2023-02-28T08:10:20;32.20;;;19.17;;
55423;SDS011;41294;42.666;23.350;2023-02-28T08:12:46;31.73;;;19.40;;
55423;SDS011;41294;42.666;23.350;2023-02-28T08:15:11;31.63;;;18.80;;
55423;SDS011;41294;42.666;23.350;2023-02-28T08:17:36;32.77;;;19.47;;
55423;SDS011;41294;42.666;23.350;2023-02-28T08:20:02;30.23;;;18.37;;
55423;SDS011;41294;42.666;23.350;2023-02-28T08:22:29;28.53;;;19.17;;
55423;SDS011;41294;42.666;23.350;2023-02-28T08:24:54;32.10;;;20.50;;
55423;SDS011;41294;42.666;23.350;2023-02-28T08:27:20;27.97;;;18.17;;
55423;SDS011;41294;42.666;23.350;2023-02-28T08:29:45;30.80;;;20.67;;
55423;SDS011;41294;42.666;23.350;2023-02-28T08:32:10;34.23;;;20.97;;
55423;SDS011;41294;42.666;23.350;2023-02-28T08:34:38;32.73;;;20.27;;
55423;SDS011;41294;42.666;23.350;2023-02-28T08:37:05;34.90;;;19.70;;
55423;SDS011;41294;42.666;23.350;2023-02-28T08:39:33;33.10;;;20.63;;
55423;SDS011;41294;42.666;23.350;2023-02-28T08:42:00;31.83;;;19.33;;
55423;SDS011;41294;42.666;23.350;2023-02-28T08:44:27;34.70;;;19.67;;
55423;SDS011;41294;42.666;23.350;2023-02-28T08:46:54;32.23;;;20.13;;
55423;SDS011;41294;42.666;23.350;2023-02-28T08:49:19;33.53;;;19.43;;
55423;SDS011;41294;42.666;23.350;2023-02-28T08:51:44;36.47;;;19.70;;
55423;SDS011;41294;42.666;23.350;2023-02-28T08:54:10;28.60;;;18.53;;
55423;SDS011;41294;42.666;23.350;2023-02-28T08:56:41;40.27;;;22.80;;
55423;SDS011;41294;42.666;23.350;2023-02-28T08:59:08;34.13;;;18.37;;
55423;SDS011;41294;42.666;23.350;2023-02-28T09:01:34;29.27;;;17.43;;
55423;SDS011;41294;42.666;23.350;2023-02-28T09:04:01;34.03;;;16.60;;
55423;SDS011;41294;42.666;23.350;2023-02-28T09:06:27;26.27;;;15.57;;
55423;SDS011;41294;42.666;23.350;2023-02-28T09:08:52;21.83;;;13.30;;
55423;SDS011;41294;42.666;23.350;2023-02-28T09:11:21;28.43;;;15.03;;
55423;SDS011;41294;42.666;23.350;2023-02-28T09:13:47;35.03;;;18.50;;
55423;SDS011;41294;42.666;23.350;2023-02-28T09:16:13;34.20;;;18.20;;
55423;SDS011;41294;42.666;23.350;2023-02-28T09:18:41;30.40;;;15.63;;
55423;SDS011;41294;42.666;23.350;2023-02-28T09:21:08;38.50;;;19.90;;
55423;SDS011;41294;42.666;23.350;2023-02-28T09:23:36;39.10;;;22.73;;
55423;SDS011;41294;42.666;23.350;2023-02-28T09:26:05;34.57;;;19.73;;
55423;SDS011;41294;42.666;23.350;2023-02-28T09:28:31;27.07;;;15.10;;
55423;SDS011;41294;42.666;23.350;2023-02-28T09:30:56;29.87;;;17.47;;
55423;SDS011;41294;42.666;23.350;2023-02-28T09:33:24;27.33;;;14.80;;
55423;SDS011;41294;42.666;23.350;2023-02-28T09:35:50;27.37;;;14.87;;
55423;SDS011;41294;42.666;23.350;2023-02-28T09:38:22;29.00;;;14.90;;
55423;SDS011;41294;42.666;23.350;2023-02-28T09:40:50;26.07;;;14.20;;
55423;SDS011;41294;42.666;23.350;2023-02-28T09:43:17;30.63;;;14.80;;
55423;SDS011;41294;42.666;23.350;2023-02-28T09:46:08;24.20;;;14.73;;
55423;SDS011;41294;42.666;23.350;2023-02-28T09:48:39;25.00;;;13.73;;
55423;SDS011;41294;42.666;23.350;2023-02-28T09:51:12;27.43;;;14.13;;
55423;SDS011;41294;42.666;23.350;2023-02-28T09:53:48;28.83;;;13.97;;
55423;SDS011;41294;42.666;23.350;2023-02-28T09:56:36;25.83;;;13.90;;
55423;SDS011;41294;42.666;23.350;2023-02-28T10:07:12;23.03;;;12.63;;
55423;SDS011;41294;42.666;23.350;2023-02-28T10:10:03;24.97;;;12.30;;
55423;SDS011;41294;42.666;23.350;2023-02-28T10:12:38;21.27;;;9.87;;
55423;SDS011;41294;42.666;23.350;2023-02-28T10:15:13;23.47;;;10.87;;
55423;SDS011;41294;42.666;23.350;2023-02-28T10:17:40;17.20;;;9.33;;
55423;SDS011;41294;42.666;23.350;2023-02-28T10:20:11;26.93;;;12.30;;
55423;SDS011;41294;42.666;23.350;2023-02-28T10:22:57;23.43;;;12.47;;
55423;SDS011;41294;42.666;23.350;2023-02-28T10:25:32;26.80;;;12.40;;
55423;SDS011;41294;42.666;23.350;2023-02-28T10:27:59;18.50;;;10.60;;
55423;SDS011;41294;42.666;23.350;2023-02-28T10:30:30;23.30;;;11.97;;
55423;SDS011;41294;42.666;23.350;2023-02-28T10:32:56;19.87;;;11.07;;
55423;SDS011;41294;42.666;23.350;2023-02-28T10:35:22;20.70;;;11.27;;
55423;SDS011;41294;42.666;23.350;2023-02-28T10:37:51;20.67;;;10.83;;
55423;SDS011;41294;42.666;23.350;2023-02-28T10:43:00;18.53;;;9.57;;
55423;SDS011;41294;42.666;23.350;2023-02-28T10:45:37;18.47;;;10.10;;
55423;SDS011;41294;42.666;23.350;2023-02-28T10:48:05;20.03;;;10.20;;
55423;SDS011;41294;42.666;23.350;2023-02-28T10:56:35;20.63;;;10.30;;
55423;SDS011;41294;42.666;23.350;2023-02-28T10:58:50;20.20;;;10.73;;
55423;SDS011;41294;42.666;23.350;2023-02-28T11:04:18;18.20;;;10.13;;
55423;SDS011;41294;42.666;23.350;2023-02-28T11:09:41;22.70;;;10.40;;
55423;SDS011;41294;42.666;23.350;2023-02-28T11:12:25;17.07;;;10.20;;
55423;SDS011;41294;42.666;23.350;2023-02-28T11:14:57;19.23;;;9.47;;
55423;SDS011;41294;42.666;23.350;2023-02-28T11:17:43;20.17;;;9.40;;
55423;SDS011;41294;42.666;23.350;2023-02-28T11:20:14;20.80;;;10.53;;
55423;SDS011;41294;42.666;23.350;2023-02-28T11:22:48;20.13;;;11.00;;
55423;SDS011;41294;42.666;23.350;2023-02-28T11:25:20;23.67;;;12.00;;
55423;SDS011;41294;42.666;23.350;2023-02-28T11:27:52;19.33;;;11.37;;
55423;SDS011;41294;42.666;23.350;2023-02-28T11:32:56;23.23;;;11.83;;
55423;SDS011;41294;42.666;23.350;2023-02-28T11:37:57;16.23;;;10.30;;
55423;SDS011;41294;42.666;23.350;2023-02-28T11:52:10;21.97;;;11.87;;
55423;SDS011;41294;42.666;23.350;2023-02-28T12:00:29;23.57;;;13.00;;
55423;SDS011;41294;42.666;23.350;2023-02-28T12:23:23;21.17;;;11.10;;
55423;SDS011;41294;42.666;23.350;2023-02-28T12:28:46;16.50;;;9.93;;
55423;SDS011;41294;42.666;23.350;2023-02-28T12:31:35;18.13;;;10.20;;
55423;SDS011;41294;42.666;23.350;2023-02-28T12:34:07;17.63;;;10.93;;
55423;SDS011;41294;42.666;23.350;2023-02-28T12:36:37;20.33;;;10.10;;
55423;SDS011;41294;42.666;23.350;2023-02-28T12:39:10;22.67;;;10.87;;
55423;SDS011;41294;42.666;23.350;2023-02-28T12:41:54;26.10;;;10.53;;
55423;SDS011;41294;42.666;23.350;2023-02-28T12:46:54;25.47;;;10.47;;
55423;SDS011;41294;42.666;23.350;2023-02-28T12:51:59;18.27;;;9.87;;
55423;SDS011;41294;42.666;23.350;2023-02-28T12:54:32;18.27;;;9.80;;
55423;SDS011;41294;42.666;23.350;2023-02-28T12:57:25;20.00;;;10.57;;
55423;SDS011;41294;42.666;23.350;2023-02-28T13:00:00;23.20;;;10.80;;
55423;SDS011;41294;42.666;23.350;2023-02-28T13:11:04;23.10;;;10.63;;
55423;SDS011;41294;42.666;23.350;2023-02-28T13:13:24;20.53;;;10.43;;
55423;SDS011;41294;42.666;23.350;2023-02-28T13:15:56;17.70;;;10.50;;
55423;SDS011;41294;42.666;23.350;2023-02-28T13:18:27;19.20;;;10.73;;
55423;SDS011;41294;42.666;23.350;2023-02-28T13:20:56;24.37;;;11.10;;
55423;SDS011;41294;42.666;23.350;2023-02-28T13:23:57;28.17;;;11.63;;
55423;SDS011;41294;42.666;23.350;2023-02-28T13:26:20;22.80;;;11.90;;
55423;SDS011;41294;42.666;23.350;2023-02-28T13:28:56;20.80;;;10.23;;
55423;SDS011;41294;42.666;23.350;2023-02-28T13:31:24;20.43;;;10.03;;
55423;SDS011;41294;42.666;23.350;2023-02-28T13:36:30;14.47;;;8.93;;
55423;SDS011;41294;42.666;23.350;2023-02-28T13:38:57;19.83;;;10.30;;
55423;SDS011;41294;42.666;23.350;2023-02-28T13:54:54;14.70;;;9.00;;
55423;SDS011;41294;42.666;23.350;2023-02-28T14:06:07;17.63;;;8.80;;
55423;SDS011;41294;42.666;23.350;2023-02-28T14:08:54;18.50;;;8.50;;
55423;SDS011;41294;42.666;23.350;2023-02-28T14:11:26;17.83;;;9.10;;
55423;SDS011;41294;42.666;23.350;2023-02-28T14:13:57;16.33;;;9.40;;
55423;SDS011;41294;42.666;23.350;2023-02-28T14:16:24;18.43;;;8.63;;
55423;SDS011;41294;42.666;23.350;2023-02-28T14:21:35;21.33;;;9.53;;
55423;SDS011;41294;42.666;23.350;2023-02-28T14:32:41;20.57;;;9.80;;
55423;SDS011;41294;42.666;23.350;2023-02-28T14:37:50;14.40;;;8.53;;
55423;SDS011;41294;42.666;23.350;2023-02-28T14:40:21;21.47;;;9.37;;
55423;SDS011;41294;42.666;23.350;2023-02-28T14:43:02;17.47;;;9.90;;
55423;SDS011;41294;42.666;23.350;2023-02-28T14:45:30;17.10;;;9.37;;
55423;SDS011;41294;42.666;23.350;2023-02-28T14:47:57;27.87;;;9.97;;
55423;SDS011;41294;42.666;23.350;2023-02-28T14:50:29;14.80;;;8.13;;
55423;SDS011;41294;42.666;23.350;2023-02-28T14:52:56;21.30;;;9.17;;
55423;SDS011;41294;42.666;23.350;2023-02-28T14:55:25;24.70;;;9.27;;
55423;SDS011;41294;42.666;23.350;2023-02-28T14:57:57;11.87;;;6.60;;
55423;SDS011;41294;42.666;23.350;2023-02-28T15:00:26;16.63;;;8.40;;
55423;SDS011;41294;42.666;23.350;2023-02-28T15:02:56;15.63;;;8.33;;
55423;SDS011;41294;42.666;23.350;2023-02-28T15:05:24;18.60;;;8.77;;
55423;SDS011;41294;42.666;23.350;2023-02-28T15:08:11;14.00;;;8.83;;
55423;SDS011;41294;42.666;23.350;2023-02-28T15:10:40;15.73;;;9.43;;
55423;SDS011;41294;42.666;23.350;2023-02-28T15:13:13;18.93;;;9.80;;
55423;SDS011;41294;42.666;23.350;2023-02-28T15:15:44;18.07;;;8.10;;
55423;SDS011;41294;42.666;23.350;2023-02-28T15:21:13;17.90;;;9.27;;
55423;SDS011;41294;42.666;23.350;2023-02-28T15:23:48;13.87;;;7.70;;
55423;SDS011;41294;42.666;23.350;2023-02-28T15:26:29;17.57;;;7.43;;
55423;SDS011;41294;42.666;23.350;2023-02-28T15:28:59;20.53;;;8.40;;
55423;SDS011;41294;42.666;23.350;2023-02-28T15:31:40;18.00;;;8.37;;
55423;SDS011;41294;42.666;23.350;2023-02-28T15:34:18;14.57;;;7.77;;
55423;SDS011;41294;42.666;23.350;2023-02-28T15:36:46;16.63;;;8.10;;
55423;SDS011;41294;42.666;23.350;2023-02-28T15:39:20;13.03;;;7.50;;
55423;SDS011;41294;42.666;23.350;2023-02-28T15:41:47;10.30;;;7.07;;
55423;SDS011;41294;42.666;23.350;2023-02-28T15:49:24;13.47;;;7.30;;
55423;SDS011;41294;42.666;23.350;2023-02-28T15:51:51;16.83;;;7.97;;
55423;SDS011;41294;42.666;23.350;2023-02-28T15:57:15;11.83;;;6.43;;
55423;SDS011;41294;42.666;23.350;2023-02-28T15:59:49;11.67;;;6.47;;
55423;SDS011;41294;42.666;23.350;2023-02-28T16:02:36;9.33;;;6.47;;
55423;SDS011;41294;42.666;23.350;2023-02-28T16:07:34;9.13;;;5.43;;
55423;SDS011;41294;42.666;23.350;2023-02-28T16:10:03;12.43;;;6.60;;
55423;SDS011;41294;42.666;23.350;2023-02-28T16:12:34;10.00;;;6.90;;
55423;SDS011;41294;42.666;23.350;2023-02-28T16:15:20;12.53;;;8.40;;
55423;SDS011;41294;42.666;23.350;2023-02-28T16:17:49;14.73;;;7.93;;
55423;SDS011;41294;42.666;23.350;2023-02-28T16:20:16;10.40;;;6.63;;
55423;SDS011;41294;42.666;23.350;2023-02-28T16:22:56;18.07;;;7.67;;
55423;SDS011;41294;42.666;23.350;2023-02-28T16:25:40;12.20;;;6.83;;
55423;SDS011;41294;42.666;23.350;2023-02-28T16:28:18;6.97;;;5.50;;
55423;SDS011;41294;42.666;23.350;2023-02-28T16:31:00;13.37;;;6.63;;
55423;SDS011;41294;42.666;23.350;2023-02-28T16:33:28;14.53;;;7.37;;
55423;SDS011;41294;42.666;23.350;2023-02-28T16:35:53;14.00;;;6.57;;
55423;SDS011;41294;42.666;23.350;2023-02-28T16:38:20;11.83;;;6.97;;
55423;SDS011;41294;42.666;23.350;2023-02-28T16:40:55;10.37;;;6.73;;
55423;SDS011;41294;42.666;23.350;2023-02-28T16:43:26;9.43;;;5.83;;
55423;SDS011;41294;42.666;23.350;2023-02-28T16:45:55;9.90;;;6.00;;
55423;SDS011;41294;42.666;23.350;2023-02-28T16:48:25;13.57;;;6.77;;
55423;SDS011;41294;42.666;23.350;2023-02-28T16:50:50;13.67;;;6.27;;
55423;SDS011;41294;42.666;23.350;2023-02-28T16:53:16;10.33;;;6.27;;
55423;SDS011;41294;42.666;23.350;2023-02-28T16:55:42;10.27;;;6.40;;
55423;SDS011;41294;42.666;23.350;2023-02-28T16:58:10;12.33;;;6.27;;
55423;SDS011;41294;42.666;23.350;2023-02-28T17:00:39;10.50;;;5.97;;
55423;SDS011;41294;42.666;23.350;2023-02-28T17:03:04;14.13;;;6.43;;
55423;SDS011;41294;42.666;23.350;2023-02-28T17:05:33;9.43;;;5.50;;
55423;SDS011;41294;42.666;23.350;2023-02-28T17:08:03;9.27;;;5.50;;
55423;SDS011;41294;42.666;23.350;2023-02-28T17:10:28;11.97;;;5.40;;
55423;SDS011;41294;42.666;23.350;2023-02-28T17:12:54;7.47;;;5.63;;
55423;SDS011;41294;42.666;23.350;2023-02-28T17:15:19;8.07;;;4.97;;
55423;SDS011;41294;42.666;23.350;2023-02-28T17:17:46;8.40;;;5.80;;